createdAt,value
2017-03-15T00:03:24.708Z,11.93
2017-03-15T00:06:19.759Z,11.93
2017-03-15T00:09:14.693Z,11.93
2017-03-15T00:12:09.733Z,11.93
2017-03-15T00:15:04.755Z,11.93
2017-03-15T00:17:59.672Z,11.91
2017-03-15T00:20:54.801Z,11.91
2017-03-15T00:23:49.782Z,11.90
2017-03-15T00:26:44.843Z,11.88
2017-03-15T00:29:39.746Z,11.87
2017-03-15T00:32:34.757Z,11.87
2017-03-15T00:35:29.711Z,11.86
2017-03-15T00:38:24.962Z,11.86
2017-03-15T00:41:19.884Z,11.86
2017-03-15T00:44:14.958Z,11.86
2017-03-15T00:47:10.026Z,11.85
2017-03-15T00:50:05.203Z,11.85
2017-03-15T00:53:00.038Z,11.86
2017-03-15T00:55:55.055Z,11.85
2017-03-15T00:58:50.031Z,11.84
2017-03-15T01:01:45.079Z,11.84
2017-03-15T01:04:40.068Z,11.84
2017-03-15T01:07:34.953Z,11.84
2017-03-15T01:10:29.930Z,11.84
2017-03-15T01:13:24.758Z,11.84
2017-03-15T01:16:19.478Z,11.84
2017-03-15T01:19:14.159Z,11.86
2017-03-15T01:25:03.336Z,11.89
2017-03-15T01:27:58.112Z,11.91
2017-03-15T01:30:53.005Z,11.92
2017-03-15T01:33:47.920Z,11.92
2017-03-15T01:36:42.750Z,11.93
2017-03-15T01:39:37.375Z,11.94
2017-03-15T01:42:32.107Z,11.94
2017-03-15T01:45:25.905Z,11.94
2017-03-15T01:48:20.351Z,11.91
2017-03-15T01:51:14.562Z,11.84
2017-03-15T01:54:07.989Z,11.76
2017-03-15T01:57:02.887Z,11.73
2017-03-15T01:59:57.874Z,11.71
2017-03-15T02:05:48.299Z,11.70
2017-03-15T02:08:43.708Z,11.69
2017-03-15T02:11:38.517Z,11.67
2017-03-15T02:14:33.534Z,11.66
2017-03-15T02:17:28.505Z,11.66
2017-03-15T02:20:23.892Z,11.65
2017-03-15T02:23:18.905Z,11.66
2017-03-15T02:29:08.801Z,11.67
2017-03-15T02:32:03.766Z,11.67
2017-03-15T02:34:58.606Z,11.67
2017-03-15T02:37:53.583Z,11.66
2017-03-15T02:40:48.518Z,11.65
2017-03-15T02:43:43.421Z,11.64
2017-03-15T02:46:38.310Z,11.64
2017-03-15T02:49:33.121Z,11.63
2017-03-15T02:52:27.770Z,11.62
2017-03-15T02:55:22.491Z,11.60
2017-03-15T03:01:10.366Z,11.58
2017-03-15T03:04:05.392Z,11.54
2017-03-15T03:07:00.200Z,11.53
2017-03-15T03:09:55.089Z,11.52
2017-03-15T03:12:49.951Z,11.51
2017-03-15T03:18:39.963Z,11.52
2017-03-15T03:21:34.776Z,11.51
2017-03-15T03:24:29.636Z,11.49
2017-03-15T03:27:24.517Z,11.48
2017-03-15T03:30:19.357Z,11.48
2017-03-15T03:33:14.084Z,11.46
2017-03-15T03:36:08.904Z,11.44
2017-03-15T03:39:03.868Z,11.40
2017-03-15T03:41:58.657Z,11.35
2017-03-15T03:44:53.486Z,11.27
2017-03-15T03:47:48.274Z,11.20
2017-03-15T03:50:43.050Z,11.11
2017-03-15T03:53:38.001Z,11.01
2017-03-15T03:56:32.728Z,10.94
2017-03-15T03:59:27.513Z,10.86
2017-03-15T04:02:22.336Z,10.81
2017-03-15T04:05:17.122Z,10.76
2017-03-15T04:08:11.894Z,10.72
2017-03-15T04:11:06.654Z,10.67
2017-03-15T04:16:56.200Z,10.62
2017-03-15T04:19:51.080Z,10.61
2017-03-15T04:25:40.647Z,10.57
2017-03-15T04:28:35.443Z,10.57
2017-03-15T04:31:30.240Z,10.57
2017-03-15T04:34:24.860Z,10.57
2017-03-15T04:40:14.535Z,10.55
2017-03-15T04:43:09.321Z,10.52
2017-03-15T04:46:04.157Z,10.50
2017-03-15T04:48:58.956Z,10.49
2017-03-15T04:51:53.640Z,10.48
2017-03-15T04:57:43.306Z,10.47
2017-03-15T05:00:38.087Z,10.46
2017-03-15T05:06:27.579Z,10.42
2017-03-15T05:09:22.325Z,10.41
2017-03-15T05:12:17.182Z,10.39
2017-03-15T05:15:11.940Z,10.37
2017-03-15T05:18:06.694Z,10.37
2017-03-15T05:21:01.494Z,10.37
2017-03-15T05:23:56.323Z,10.36
2017-03-15T05:26:51.106Z,10.37
2017-03-15T05:32:40.702Z,10.39
2017-03-15T05:35:35.466Z,10.41
2017-03-15T05:38:30.228Z,10.43
2017-03-15T05:41:25.068Z,10.45
2017-03-15T05:44:19.788Z,10.47
2017-03-15T05:47:15.056Z,10.49
2017-03-15T05:50:09.747Z,10.51
2017-03-15T05:53:04.535Z,10.54
2017-03-15T05:55:59.358Z,10.57
2017-03-15T06:01:48.766Z,10.62
2017-03-15T06:04:43.491Z,10.66
2017-03-15T06:10:33.092Z,10.80
2017-03-15T06:16:22.888Z,10.93
2017-03-15T06:25:07.335Z,11.10
2017-03-15T06:28:02.127Z,11.14
2017-03-15T06:30:57.022Z,11.14
2017-03-15T06:33:52.155Z,11.14
2017-03-15T06:36:47.074Z,11.16
2017-03-15T06:39:42.017Z,11.22
2017-03-15T06:42:36.783Z,11.27
2017-03-15T06:45:31.657Z,11.28
2017-03-15T06:48:26.372Z,11.27
2017-03-15T06:51:21.199Z,11.36
2017-03-15T06:54:16.200Z,11.78
2017-03-15T06:57:11.343Z,12.79
2017-03-15T07:00:06.586Z,13.62
2017-03-15T07:03:01.807Z,13.84
2017-03-15T07:05:56.856Z,13.66
2017-03-15T07:08:51.866Z,13.54
2017-03-15T07:11:46.736Z,13.41
2017-03-15T07:14:41.762Z,13.45
2017-03-15T07:17:36.727Z,13.55
2017-03-15T07:23:26.680Z,13.50
2017-03-15T07:35:06.335Z,13.43
2017-03-15T07:38:01.362Z,13.71
2017-03-15T07:40:56.576Z,14.53
2017-03-15T07:43:51.918Z,14.76
2017-03-15T07:46:47.054Z,15.32
2017-03-15T07:49:42.500Z,16.06
2017-03-15T07:52:38.318Z,18.10
2017-03-15T07:55:34.989Z,19.97
2017-03-15T08:01:26.387Z,20.24
2017-03-15T08:04:22.312Z,21.82
2017-03-15T08:07:18.459Z,23.29
2017-03-15T08:13:11.046Z,25.91
2017-03-15T08:16:06.792Z,24.82
2017-03-15T08:19:02.322Z,24.09
2017-03-15T08:21:57.800Z,24.40
2017-03-15T08:24:53.654Z,25.30
2017-03-15T08:27:49.735Z,26.69
2017-03-15T08:30:45.608Z,25.97
2017-03-15T08:33:40.735Z,24.31
2017-03-15T08:36:35.787Z,23.57
2017-03-15T08:39:31.502Z,24.31
2017-03-15T08:42:26.990Z,24.49
2017-03-15T08:45:23.022Z,26.32
2017-03-15T08:48:19.269Z,27.68
2017-03-15T08:51:15.036Z,27.17
2017-03-15T08:54:10.673Z,26.74
2017-03-15T08:57:06.002Z,25.66
2017-03-15T09:00:01.474Z,25.99
2017-03-15T09:02:56.918Z,24.66
2017-03-15T09:05:52.014Z,24.22
2017-03-15T09:08:47.322Z,23.93
2017-03-15T09:11:42.393Z,22.97
2017-03-15T09:14:37.860Z,24.28
2017-03-15T09:17:33.061Z,23.16
2017-03-15T09:20:28.047Z,21.48
2017-03-15T09:23:23.015Z,20.53
2017-03-15T09:26:18.230Z,20.31
2017-03-15T09:29:13.262Z,19.91
2017-03-15T09:32:08.647Z,22.02
2017-03-15T09:35:04.671Z,24.36
2017-03-15T09:40:55.949Z,24.91
2017-03-15T09:43:51.012Z,24.17
2017-03-15T09:46:45.921Z,22.70
2017-03-15T09:49:40.623Z,21.37
2017-03-15T09:52:35.164Z,20.38
2017-03-15T09:55:29.966Z,20.65
2017-03-15T09:58:25.069Z,21.91
2017-03-15T10:01:19.719Z,23.25
2017-03-15T10:04:15.320Z,22.93
2017-03-15T10:10:06.580Z,24.31
2017-03-15T10:13:01.701Z,23.78
2017-03-15T10:15:56.970Z,23.21
2017-03-15T10:18:52.510Z,22.61
2017-03-15T10:21:47.617Z,21.78
2017-03-15T10:24:42.307Z,20.99
2017-03-15T10:27:37.334Z,19.47
2017-03-15T10:30:31.821Z,18.15
2017-03-15T10:33:26.374Z,17.25
2017-03-15T10:36:21.077Z,16.93
2017-03-15T10:39:15.927Z,16.66
2017-03-15T10:42:10.860Z,16.19
2017-03-15T10:45:05.758Z,15.65
2017-03-15T10:48:00.675Z,15.40
2017-03-15T10:50:55.641Z,15.18
2017-03-15T10:53:50.383Z,14.80
2017-03-15T10:56:45.091Z,14.60
2017-03-15T10:59:39.693Z,14.55
2017-03-15T11:02:34.360Z,14.44
2017-03-15T11:08:23.437Z,14.01
2017-03-15T11:11:17.876Z,13.90
2017-03-15T11:14:12.430Z,13.86
2017-03-15T11:17:06.961Z,13.88
2017-03-15T11:20:01.481Z,13.89
2017-03-15T11:22:55.904Z,13.75
2017-03-15T11:25:50.358Z,13.65
2017-03-15T11:28:44.788Z,13.58
2017-03-15T11:31:39.287Z,13.61
2017-03-15T11:34:33.715Z,13.53
2017-03-15T11:37:28.533Z,13.39
2017-03-15T11:40:23.191Z,13.30
2017-03-15T11:43:18.437Z,13.32
2017-03-15T11:46:13.040Z,13.42
2017-03-15T11:49:07.750Z,13.57
2017-03-15T11:52:02.292Z,13.66
2017-03-15T11:54:56.958Z,13.64
2017-03-15T12:00:46.350Z,13.67
2017-03-15T12:03:41.041Z,13.79
2017-03-15T12:06:35.743Z,13.77
2017-03-15T12:09:30.150Z,13.69
2017-03-15T12:12:24.699Z,13.58
2017-03-15T12:15:19.304Z,13.55
2017-03-15T12:21:08.446Z,13.50
2017-03-15T12:24:02.960Z,13.62
2017-03-15T12:26:57.638Z,13.69
2017-03-15T12:29:52.360Z,13.78
2017-03-15T12:32:47.027Z,13.82
2017-03-15T12:35:41.702Z,13.76
2017-03-15T12:38:36.331Z,13.76
2017-03-15T12:41:31.090Z,13.89
2017-03-15T12:47:20.566Z,13.82
2017-03-15T12:50:15.295Z,13.71
2017-03-15T12:53:09.922Z,13.55
2017-03-15T12:56:04.677Z,13.49
2017-03-15T12:58:59.241Z,13.39
2017-03-15T13:04:48.516Z,13.47
2017-03-15T13:07:43.052Z,13.41
2017-03-15T13:10:37.737Z,13.33
2017-03-15T13:13:32.310Z,13.27
2017-03-15T13:16:26.826Z,13.28
2017-03-15T13:19:21.570Z,13.29
2017-03-15T13:22:16.083Z,13.25
2017-03-15T13:25:10.729Z,13.16
2017-03-15T13:31:00.039Z,13.14
2017-03-15T13:33:54.649Z,13.11
2017-03-15T13:36:49.107Z,13.07
2017-03-15T13:39:43.810Z,13.13
2017-03-15T13:42:38.509Z,13.18
2017-03-15T13:45:33.128Z,13.23
2017-03-15T13:48:27.868Z,13.30
2017-03-15T13:51:22.608Z,13.35
2017-03-15T13:54:17.317Z,13.41
2017-03-15T14:00:06.677Z,13.45
2017-03-15T14:03:01.349Z,13.44
2017-03-15T14:05:55.944Z,13.47
2017-03-15T14:08:50.612Z,13.55
2017-03-15T14:11:45.305Z,13.60
2017-03-15T14:17:34.688Z,13.70
2017-03-15T14:20:29.436Z,13.68
2017-03-15T14:23:23.965Z,13.66
2017-03-15T14:26:18.552Z,13.65
2017-03-15T14:29:13.207Z,13.54
2017-03-15T14:32:07.871Z,13.44
2017-03-15T14:35:02.366Z,13.44
2017-03-15T14:37:57.019Z,13.44
2017-03-15T14:40:51.699Z,13.45
2017-03-15T14:43:46.301Z,13.38
2017-03-15T14:46:40.953Z,13.31
2017-03-15T14:49:35.659Z,13.26
2017-03-15T14:52:30.327Z,13.23
2017-03-15T14:55:24.921Z,13.21
2017-03-15T14:58:19.468Z,13.23
2017-03-15T15:01:14.138Z,13.21
2017-03-15T15:04:08.807Z,13.19
2017-03-15T15:07:03.430Z,13.13
2017-03-15T15:09:58.299Z,13.13
2017-03-15T15:12:52.860Z,13.09
2017-03-15T15:15:47.352Z,13.08
2017-03-15T15:18:42.005Z,13.06
2017-03-15T15:24:31.221Z,13.06
2017-03-15T15:27:25.791Z,13.01
2017-03-15T15:30:20.250Z,12.96
2017-03-15T15:36:09.602Z,12.89
2017-03-15T15:39:04.194Z,12.84
2017-03-15T15:41:58.824Z,12.78
2017-03-15T15:44:53.394Z,12.71
2017-03-15T15:47:47.896Z,12.65
2017-03-15T15:50:42.422Z,12.59
2017-03-15T15:53:36.984Z,12.55
2017-03-15T15:56:31.520Z,12.52
2017-03-15T15:59:26.043Z,12.46
2017-03-15T16:02:20.639Z,12.41
2017-03-15T16:05:15.170Z,12.35
2017-03-15T16:08:09.776Z,12.30
2017-03-15T16:16:53.408Z,12.08
2017-03-15T16:19:47.968Z,11.98
2017-03-15T16:25:37.028Z,11.79
2017-03-15T16:28:31.692Z,11.68
2017-03-15T16:34:20.801Z,11.51
2017-03-15T16:40:09.788Z,11.32
2017-03-15T16:43:04.363Z,11.23
2017-03-15T16:45:58.772Z,11.11
2017-03-15T16:48:53.222Z,10.97
2017-03-15T16:51:47.717Z,10.82
2017-03-15T16:54:42.168Z,10.71
2017-03-15T16:57:36.939Z,10.63
2017-03-15T17:00:31.518Z,10.54
2017-03-15T17:03:26.003Z,10.42
2017-03-15T17:06:20.495Z,10.37
2017-03-15T17:09:15.043Z,10.30
2017-03-15T17:15:04.155Z,10.15
2017-03-15T17:17:58.595Z,10.09
2017-03-15T17:20:53.082Z,10.00
2017-03-15T17:23:47.513Z,9.87
2017-03-15T17:26:41.915Z,9.73
2017-03-15T17:29:36.476Z,9.58
2017-03-15T17:32:30.872Z,9.44
2017-03-15T17:35:25.228Z,9.34
2017-03-15T17:38:19.686Z,9.23
2017-03-15T17:41:14.202Z,9.15
2017-03-15T17:44:08.705Z,9.15
2017-03-15T17:47:03.275Z,9.16
2017-03-15T17:49:57.751Z,9.15
2017-03-15T17:52:52.192Z,9.10
2017-03-15T17:55:46.655Z,9.04
2017-03-15T17:58:41.316Z,9.00
2017-03-15T18:01:35.773Z,9.00
2017-03-15T18:07:24.783Z,8.91
2017-03-15T18:10:19.261Z,8.89
2017-03-15T18:13:13.721Z,8.89
2017-03-15T18:16:08.096Z,8.87
2017-03-15T18:19:02.618Z,8.83
2017-03-15T18:21:56.957Z,8.78
2017-03-15T18:24:51.300Z,8.72
2017-03-15T18:27:45.824Z,8.63
2017-03-15T18:30:40.345Z,8.57
2017-03-15T18:33:34.837Z,8.54
2017-03-15T18:36:29.246Z,8.56
2017-03-15T18:42:18.329Z,8.48
2017-03-15T18:45:12.814Z,8.43
2017-03-15T18:48:07.169Z,8.40
2017-03-15T18:51:01.552Z,8.33
2017-03-15T18:53:55.927Z,8.26
2017-03-15T18:56:50.227Z,8.21
2017-03-15T18:59:44.556Z,8.18
2017-03-15T19:02:38.803Z,8.13
2017-03-15T19:05:33.076Z,8.17
2017-03-15T19:08:27.430Z,8.20
2017-03-15T19:11:22.007Z,8.22
2017-03-15T19:20:05.363Z,8.16
2017-03-15T19:22:59.738Z,8.14
2017-03-15T19:28:48.449Z,8.00
2017-03-15T19:31:42.817Z,7.92
2017-03-15T19:34:37.085Z,7.86
2017-03-15T19:37:31.332Z,7.81
2017-03-15T19:40:25.530Z,7.80
2017-03-15T19:43:19.932Z,7.77
2017-03-15T19:49:08.502Z,7.70
2017-03-15T19:52:02.757Z,7.68
2017-03-15T19:54:57.369Z,7.68
2017-03-15T20:03:40.617Z,7.63
2017-03-15T20:06:35.387Z,7.59
2017-03-15T20:09:29.639Z,7.62
2017-03-15T20:12:23.919Z,7.61
2017-03-15T20:15:18.181Z,7.59
2017-03-15T20:18:12.884Z,7.58
2017-03-15T20:21:07.187Z,7.55
2017-03-15T20:24:01.132Z,7.53
2017-03-15T20:29:48.747Z,7.52
2017-03-15T20:32:42.349Z,7.53
2017-03-15T20:35:35.979Z,7.51
2017-03-15T20:38:29.558Z,7.48
2017-03-15T20:41:22.992Z,7.48
2017-03-15T20:44:16.322Z,7.47
2017-03-15T20:47:09.221Z,7.42
2017-03-15T20:50:02.501Z,7.36
2017-03-15T20:52:56.049Z,7.31
2017-03-15T20:55:49.013Z,7.25
2017-03-15T20:58:42.342Z,7.23
2017-03-15T21:01:35.472Z,7.18
2017-03-15T21:04:28.719Z,7.15
2017-03-15T21:07:21.945Z,7.13
2017-03-15T21:10:15.302Z,7.12
2017-03-15T21:13:08.458Z,7.12
2017-03-15T21:16:01.760Z,7.11
2017-03-15T21:18:55.073Z,7.08
2017-03-15T21:21:48.463Z,7.06
2017-03-15T21:27:35.096Z,7.01
2017-03-15T21:30:28.347Z,6.97
2017-03-15T21:36:14.731Z,6.90
2017-03-15T21:42:01.308Z,6.83
2017-03-15T21:44:54.588Z,6.81
2017-03-15T21:50:41.536Z,6.78
2017-03-15T21:53:34.673Z,6.75
2017-03-15T21:56:27.901Z,6.70
2017-03-15T22:02:14.453Z,6.69
2017-03-15T22:08:01.183Z,6.65
2017-03-15T22:10:54.449Z,6.61
2017-03-15T22:13:47.803Z,6.58
2017-03-15T22:16:41.165Z,6.56
2017-03-15T22:22:27.739Z,6.55
2017-03-15T22:28:14.443Z,6.51
2017-03-15T22:31:07.911Z,6.49
2017-03-15T22:34:01.258Z,6.48
2017-03-15T22:36:54.535Z,6.50
2017-03-15T22:39:47.887Z,6.49
2017-03-15T22:45:34.611Z,6.46
2017-03-15T22:51:21.389Z,6.46
2017-03-15T22:57:08.433Z,6.45
2017-03-15T23:00:01.754Z,6.41
2017-03-15T23:02:55.016Z,6.40
2017-03-15T23:05:48.417Z,6.41
2017-03-15T23:11:35.144Z,6.40
2017-03-15T23:14:28.534Z,6.41
2017-03-15T23:17:22.085Z,6.36
2017-03-15T23:20:15.506Z,6.29
2017-03-15T23:26:02.189Z,6.22
2017-03-15T23:28:55.567Z,6.16
2017-03-15T23:34:42.233Z,6.11
2017-03-15T23:37:35.590Z,6.08
2017-03-15T23:40:28.923Z,6.06
2017-03-15T23:43:22.157Z,6.02
2017-03-15T23:46:15.469Z,5.98
2017-03-15T23:52:01.901Z,5.94
2017-03-15T23:54:55.126Z,5.95
2017-03-15T23:57:48.379Z,5.96
